sensor_id;sensor_type;location;lat;lon;timestamp;pressure;altitude;pressure_sealevel;temperature;humidity
50734;BME280;36701;51.798;19.474;2022-10-17T00:01:00;99750.91;;;17.47;100.00
50734;BME280;36701;51.798;19.474;2022-10-17T00:03:33;99720.47;;;17.29;100.00
50734;BME280;36701;51.798;19.474;2022-10-17T00:10:00;99757.47;;;17.46;100.00
50734;BME280;36701;51.798;19.474;2022-10-17T00:12:27;99709.13;;;17.06;100.00
50734;BME280;36701;51.798;19.474;2022-10-17T00:14:53;99773.78;;;17.46;100.00
50734;BME280;36701;51.798;19.474;2022-10-17T00:17:20;99783.81;;;17.50;100.00
50734;BME280;36701;51.798;19.474;2022-10-17T00:19:46;99781.72;;;17.21;100.00
50734;BME280;36701;51.798;19.474;2022-10-17T00:22:13;99737.91;;;17.33;100.00
50734;BME280;36701;51.798;19.474;2022-10-17T00:24:39;99748.75;;;17.38;100.00
50734;BME280;36701;51.798;19.474;2022-10-17T00:27:06;99745.25;;;17.22;100.00
50734;BME280;36701;51.798;19.474;2022-10-17T00:29:32;99784.12;;;17.43;100.00
50734;BME280;36701;51.798;19.474;2022-10-17T00:31:59;99747.69;;;17.39;100.00
50734;BME280;36701;51.798;19.474;2022-10-17T00:34:28;99737.62;;;17.35;100.00
50734;BME280;36701;51.798;19.474;2022-10-17T00:36:56;99763.56;;;16.96;100.00
50734;BME280;36701;51.798;19.474;2022-10-17T00:39:24;99777.69;;;17.03;100.00
50734;BME280;36701;51.798;19.474;2022-10-17T00:41:50;99775.78;;;16.94;100.00
50734;BME280;36701;51.798;19.474;2022-10-17T00:47:05;99785.25;;;17.27;100.00
50734;BME280;36701;51.798;19.474;2022-10-17T00:49:36;99772.44;;;17.43;100.00
50734;BME280;36701;51.798;19.474;2022-10-17T00:52:08;99740.06;;;17.26;100.00
50734;BME280;36701;51.798;19.474;2022-10-17T00:54:43;99733.09;;;16.79;100.00
50734;BME280;36701;51.798;19.474;2022-10-17T00:57:11;99702.06;;;16.85;100.00
50734;BME280;36701;51.798;19.474;2022-10-17T00:59:39;99771.63;;;17.37;100.00
50734;BME280;36701;51.798;19.474;2022-10-17T01:02:10;99764.53;;;17.41;100.00
50734;BME280;36701;51.798;19.474;2022-10-17T01:04:41;99727.56;;;17.20;100.00
50734;BME280;36701;51.798;19.474;2022-10-17T01:07:08;99762.94;;;17.20;100.00
50734;BME280;36701;51.798;19.474;2022-10-17T01:09:35;99722.16;;;17.15;100.00
50734;BME280;36701;51.798;19.474;2022-10-17T01:12:21;99762.47;;;17.02;100.00
50734;BME280;36701;51.798;19.474;2022-10-17T01:21:05;99780.66;;;16.76;100.00
50734;BME280;36701;51.798;19.474;2022-10-17T01:26:41;99778.22;;;16.80;100.00
50734;BME280;36701;51.798;19.474;2022-10-17T01:31:58;99735.25;;;16.51;100.00
50734;BME280;36701;51.798;19.474;2022-10-17T01:37:04;99729.25;;;16.13;100.00
50734;BME280;36701;51.798;19.474;2022-10-17T01:39:45;99758.03;;;16.09;100.00
50734;BME280;36701;51.798;19.474;2022-10-17T01:42:17;99763.25;;;16.36;100.00
50734;BME280;36701;51.798;19.474;2022-10-17T01:44:58;99709.97;;;16.09;100.00
50734;BME280;36701;51.798;19.474;2022-10-17T01:47:29;99772.75;;;16.33;100.00
50734;BME280;36701;51.798;19.474;2022-10-17T01:50:02;99774.13;;;16.31;100.00
50734;BME280;36701;51.798;19.474;2022-10-17T01:52:32;99742.81;;;15.97;100.00
50734;BME280;36701;51.798;19.474;2022-10-17T01:55:26;99797.47;;;16.22;100.00
50734;BME280;36701;51.798;19.474;2022-10-17T01:58:00;99738.97;;;15.83;100.00
50734;BME280;36701;51.798;19.474;2022-10-17T02:00:29;99785.53;;;16.38;100.00
50734;BME280;36701;51.798;19.474;2022-10-17T02:02:59;99755.34;;;16.14;100.00
50734;BME280;36701;51.798;19.474;2022-10-17T02:05:31;99729.78;;;15.94;100.00
50734;BME280;36701;51.798;19.474;2022-10-17T02:07:58;99743.66;;;16.29;100.00
50734;BME280;36701;51.798;19.474;2022-10-17T02:10:50;99788.53;;;16.62;100.00
50734;BME280;36701;51.798;19.474;2022-10-17T02:16:33;99737.97;;;16.25;100.00
50734;BME280;36701;51.798;19.474;2022-10-17T02:19:23;99776.53;;;16.22;100.00
50734;BME280;36701;51.798;19.474;2022-10-17T02:28:05;99733.81;;;15.82;100.00
50734;BME280;36701;51.798;19.474;2022-10-17T02:30:18;99751.84;;;15.55;100.00
50734;BME280;36701;51.798;19.474;2022-10-17T02:32:54;99756.81;;;15.69;100.00
50734;BME280;36701;51.798;19.474;2022-10-17T02:35:26;99789.00;;;16.08;100.00
50734;BME280;36701;51.798;19.474;2022-10-17T02:37:55;99743.25;;;15.74;100.00
50734;BME280;36701;51.798;19.474;2022-10-17T02:40:23;99745.47;;;15.82;100.00
50734;BME280;36701;51.798;19.474;2022-10-17T02:42:52;99792.81;;;16.12;100.00
50734;BME280;36701;51.798;19.474;2022-10-17T02:45:20;99787.41;;;16.22;100.00
50734;BME280;36701;51.798;19.474;2022-10-17T02:47:58;99789.00;;;16.13;100.00
50734;BME280;36701;51.798;19.474;2022-10-17T02:50:46;99812.38;;;16.19;100.00
50734;BME280;36701;51.798;19.474;2022-10-17T02:53:29;99813.50;;;16.18;100.00
50734;BME280;36701;51.798;19.474;2022-10-17T02:56:02;99807.00;;;16.29;100.00
50734;BME280;36701;51.798;19.474;2022-10-17T02:58:34;99783.56;;;16.13;100.00
50734;BME280;36701;51.798;19.474;2022-10-17T03:01:03;99807.00;;;16.34;100.00
50734;BME280;36701;51.798;19.474;2022-10-17T03:03:31;99818.41;;;16.31;100.00
50734;BME280;36701;51.798;19.474;2022-10-17T03:05:59;99813.53;;;16.59;100.00
50734;BME280;36701;51.798;19.474;2022-10-17T03:08:25;99782.81;;;16.23;100.00
50734;BME280;36701;51.798;19.474;2022-10-17T03:10:57;99820.63;;;16.65;100.00
50734;BME280;36701;51.798;19.474;2022-10-17T03:13:27;99827.63;;;16.20;100.00
50734;BME280;36701;51.798;19.474;2022-10-17T03:15:57;99818.63;;;16.14;100.00
50734;BME280;36701;51.798;19.474;2022-10-17T03:18:24;99832.47;;;16.13;100.00
50734;BME280;36701;51.798;19.474;2022-10-17T03:20:51;99835.78;;;16.30;100.00
50734;BME280;36701;51.798;19.474;2022-10-17T03:23:18;99808.06;;;16.23;100.00
50734;BME280;36701;51.798;19.474;2022-10-17T03:25:44;99836.81;;;16.09;100.00
50734;BME280;36701;51.798;19.474;2022-10-17T03:28:13;99797.13;;;15.97;100.00
50734;BME280;36701;51.798;19.474;2022-10-17T03:30:39;99823.25;;;16.14;100.00
50734;BME280;36701;51.798;19.474;2022-10-17T03:33:06;99827.59;;;16.10;100.00
50734;BME280;36701;51.798;19.474;2022-10-17T03:35:33;99825.97;;;16.09;100.00
50734;BME280;36701;51.798;19.474;2022-10-17T03:37:59;99782.44;;;15.93;100.00
50734;BME280;36701;51.798;19.474;2022-10-17T03:40:26;99823.78;;;16.16;100.00
50734;BME280;36701;51.798;19.474;2022-10-17T03:42:53;99815.53;;;15.85;100.00
50734;BME280;36701;51.798;19.474;2022-10-17T03:45:20;99830.28;;;16.05;100.00
50734;BME280;36701;51.798;19.474;2022-10-17T03:47:47;99827.59;;;16.15;100.00
50734;BME280;36701;51.798;19.474;2022-10-17T03:50:13;99836.78;;;15.98;100.00
50734;BME280;36701;51.798;19.474;2022-10-17T03:52:45;99841.66;;;16.02;100.00
50734;BME280;36701;51.798;19.474;2022-10-17T03:55:13;99781.22;;;15.64;100.00
50734;BME280;36701;51.798;19.474;2022-10-17T03:57:40;99790.91;;;15.49;100.00
50734;BME280;36701;51.798;19.474;2022-10-17T04:00:07;99832.87;;;15.79;100.00
50734;BME280;36701;51.798;19.474;2022-10-17T04:02:40;99798.34;;;15.74;100.00
50734;BME280;36701;51.798;19.474;2022-10-17T04:05:07;99793.41;;;15.61;100.00
50734;BME280;36701;51.798;19.474;2022-10-17T04:07:34;99843.84;;;16.00;100.00
50734;BME280;36701;51.798;19.474;2022-10-17T04:10:03;99844.97;;;16.14;100.00
50734;BME280;36701;51.798;19.474;2022-10-17T04:12:31;99842.88;;;16.31;100.00
50734;BME280;36701;51.798;19.474;2022-10-17T04:14:57;99860.28;;;16.41;100.00
50734;BME280;36701;51.798;19.474;2022-10-17T04:17:24;99849.03;;;16.06;100.00
50734;BME280;36701;51.798;19.474;2022-10-17T04:19:52;99842.53;;;15.54;100.00
50734;BME280;36701;51.798;19.474;2022-10-17T04:22:19;99854.63;;;15.79;100.00
50734;BME280;36701;51.798;19.474;2022-10-17T04:24:45;99815.03;;;15.93;100.00
50734;BME280;36701;51.798;19.474;2022-10-17T04:27:13;99822.03;;;15.79;100.00
50734;BME280;36701;51.798;19.474;2022-10-17T04:29:39;99853.34;;;15.97;100.00
50734;BME280;36701;51.798;19.474;2022-10-17T04:32:07;99825.87;;;15.88;100.00
50734;BME280;36701;51.798;19.474;2022-10-17T04:34:33;99823.69;;;15.80;100.00
50734;BME280;36701;51.798;19.474;2022-10-17T04:37:00;99870.63;;;16.49;100.00
50734;BME280;36701;51.798;19.474;2022-10-17T04:39:26;99861.88;;;16.21;100.00
50734;BME280;36701;51.798;19.474;2022-10-17T04:41:54;99871.22;;;16.66;100.00
50734;BME280;36701;51.798;19.474;2022-10-17T04:44:22;99821.84;;;16.01;100.00
50734;BME280;36701;51.798;19.474;2022-10-17T04:46:49;99860.75;;;16.17;100.00
50734;BME280;36701;51.798;19.474;2022-10-17T04:49:16;99856.87;;;15.97;100.00
50734;BME280;36701;51.798;19.474;2022-10-17T04:51:43;99840.13;;;15.63;100.00
50734;BME280;36701;51.798;19.474;2022-10-17T04:54:09;99806.66;;;15.52;100.00
50734;BME280;36701;51.798;19.474;2022-10-17T04:56:44;99831.16;;;15.62;100.00
50734;BME280;36701;51.798;19.474;2022-10-17T04:59:12;99839.19;;;15.42;100.00
50734;BME280;36701;51.798;19.474;2022-10-17T05:01:39;99837.09;;;15.54;100.00
50734;BME280;36701;51.798;19.474;2022-10-17T05:04:06;99786.13;;;15.19;100.00
50734;BME280;36701;51.798;19.474;2022-10-17T05:06:32;99814.25;;;15.50;100.00
50734;BME280;36701;51.798;19.474;2022-10-17T05:09:02;99827.47;;;15.79;100.00
50734;BME280;36701;51.798;19.474;2022-10-17T05:11:30;99806.88;;;15.98;100.00
50734;BME280;36701;51.798;19.474;2022-10-17T05:14:01;99833.37;;;15.76;100.00
50734;BME280;36701;51.798;19.474;2022-10-17T05:16:33;99852.25;;;15.98;100.00
50734;BME280;36701;51.798;19.474;2022-10-17T05:19:06;99852.94;;;16.36;100.00
50734;BME280;36701;51.798;19.474;2022-10-17T05:21:36;99849.81;;;15.96;100.00
50734;BME280;36701;51.798;19.474;2022-10-17T05:24:06;99815.56;;;15.95;100.00
50734;BME280;36701;51.798;19.474;2022-10-17T05:26:33;99861.88;;;16.21;100.00
50734;BME280;36701;51.798;19.474;2022-10-17T05:29:04;99882.50;;;16.27;100.00
50734;BME280;36701;51.798;19.474;2022-10-17T05:31:32;99857.44;;;16.05;100.00
50734;BME280;36701;51.798;19.474;2022-10-17T05:34:02;99866.78;;;16.24;100.00
50734;BME280;36701;51.798;19.474;2022-10-17T05:36:29;99892.31;;;16.33;100.00
50734;BME280;36701;51.798;19.474;2022-10-17T05:38:58;99883.06;;;16.24;100.00
50734;BME280;36701;51.798;19.474;2022-10-17T05:41:25;99899.91;;;16.21;100.00
50734;BME280;36701;51.798;19.474;2022-10-17T05:43:52;99910.19;;;16.14;100.00
50734;BME280;36701;51.798;19.474;2022-10-17T05:46:18;99871.59;;;16.07;100.00
50734;BME280;36701;51.798;19.474;2022-10-17T05:48:45;99910.09;;;15.98;100.00
50734;BME280;36701;51.798;19.474;2022-10-17T05:51:11;99868.62;;;15.60;100.00
50734;BME280;36701;51.798;19.474;2022-10-17T05:53:40;99916.94;;;16.11;100.00
50734;BME280;36701;51.798;19.474;2022-10-17T05:56:10;99921.31;;;16.07;100.00
50734;BME280;36701;51.798;19.474;2022-10-17T05:58:42;99923.50;;;16.15;100.00
50734;BME280;36701;51.798;19.474;2022-10-17T06:01:14;99911.59;;;16.22;100.00
50734;BME280;36701;51.798;19.474;2022-10-17T06:03:40;99909.03;;;16.00;100.00
50734;BME280;36701;51.798;19.474;2022-10-17T06:06:10;99905.56;;;16.14;100.00
50734;BME280;36701;51.798;19.474;2022-10-17T06:08:39;99898.44;;;16.03;100.00
50734;BME280;36701;51.798;19.474;2022-10-17T06:11:06;99860.50;;;15.66;100.00
50734;BME280;36701;51.798;19.474;2022-10-17T06:13:33;99900.44;;;15.70;100.00
50734;BME280;36701;51.798;19.474;2022-10-17T06:16:00;99865.75;;;15.77;100.00
50734;BME280;36701;51.798;19.474;2022-10-17T06:18:28;99895.59;;;16.36;100.00
50734;BME280;36701;51.798;19.474;2022-10-17T06:21:04;99865.13;;;16.23;100.00
50734;BME280;36701;51.798;19.474;2022-10-17T06:23:32;99905.44;;;16.62;100.00
50734;BME280;36701;51.798;19.474;2022-10-17T06:26:01;99920.34;;;16.44;100.00
50734;BME280;36701;51.798;19.474;2022-10-17T06:28:28;99910.00;;;16.36;100.00
50734;BME280;36701;51.798;19.474;2022-10-17T06:30:56;99897.72;;;16.18;100.00
50734;BME280;36701;51.798;19.474;2022-10-17T06:33:22;99890.72;;;16.48;100.00
50734;BME280;36701;51.798;19.474;2022-10-17T06:35:51;99896.94;;;16.33;100.00
50734;BME280;36701;51.798;19.474;2022-10-17T06:38:20;99935.59;;;16.50;100.00
50734;BME280;36701;51.798;19.474;2022-10-17T06:40:49;99915.81;;;16.70;100.00
50734;BME280;36701;51.798;19.474;2022-10-17T06:43:15;99895.47;;;16.05;100.00
50734;BME280;36701;51.798;19.474;2022-10-17T06:45:46;99898.66;;;16.55;100.00
50734;BME280;36701;51.798;19.474;2022-10-17T06:48:14;99952.34;;;17.05;100.00
50734;BME280;36701;51.798;19.474;2022-10-17T06:50:41;99885.59;;;16.51;100.00
50734;BME280;36701;51.798;19.474;2022-10-17T06:53:08;99892.38;;;16.44;100.00
50734;BME280;36701;51.798;19.474;2022-10-17T06:55:37;99925.00;;;16.59;100.00
50734;BME280;36701;51.798;19.474;2022-10-17T06:58:03;99958.88;;;17.04;100.00
50734;BME280;36701;51.798;19.474;2022-10-17T07:00:32;99970.06;;;17.34;100.00
50734;BME280;36701;51.798;19.474;2022-10-17T07:02:58;99968.97;;;17.09;100.00
50734;BME280;36701;51.798;19.474;2022-10-17T07:05:25;99970.84;;;17.03;100.00
50734;BME280;36701;51.798;19.474;2022-10-17T07:07:51;99918.88;;;17.00;100.00
50734;BME280;36701;51.798;19.474;2022-10-17T07:10:18;99958.03;;;16.88;100.00
50734;BME280;36701;51.798;19.474;2022-10-17T07:12:44;99965.69;;;17.28;100.00
50734;BME280;36701;51.798;19.474;2022-10-17T07:15:11;99954.00;;;17.48;100.00
50734;BME280;36701;51.798;19.474;2022-10-17T07:17:38;99961.91;;;17.49;100.00
50734;BME280;36701;51.798;19.474;2022-10-17T07:20:06;99921.84;;;17.55;100.00
50734;BME280;36701;51.798;19.474;2022-10-17T07:22:34;99927.06;;;17.46;100.00
50734;BME280;36701;51.798;19.474;2022-10-17T07:25:01;99967.06;;;17.30;100.00
50734;BME280;36701;51.798;19.474;2022-10-17T07:27:29;99953.47;;;17.30;100.00
50734;BME280;36701;51.798;19.474;2022-10-17T07:29:58;99952.91;;;17.64;100.00
50734;BME280;36701;51.798;19.474;2022-10-17T07:32:25;99950.72;;;17.15;100.00
50734;BME280;36701;51.798;19.474;2022-10-17T07:34:51;99928.97;;;17.46;100.00
50734;BME280;36701;51.798;19.474;2022-10-17T07:37:19;99944.75;;;17.33;100.00
50734;BME280;36701;51.798;19.474;2022-10-17T07:39:46;99967.03;;;17.97;100.00
50734;BME280;36701;51.798;19.474;2022-10-17T07:42:12;99956.13;;;17.82;100.00
50734;BME280;36701;51.798;19.474;2022-10-17T07:44:40;99979.00;;;18.11;100.00
50734;BME280;36701;51.798;19.474;2022-10-17T07:47:07;99980.66;;;17.66;100.00
50734;BME280;36701;51.798;19.474;2022-10-17T07:49:35;99960.50;;;18.03;100.00
50734;BME280;36701;51.798;19.474;2022-10-17T07:52:14;99950.72;;;17.92;100.00
50734;BME280;36701;51.798;19.474;2022-10-17T07:54:47;99985.03;;;17.93;100.00
50734;BME280;36701;51.798;19.474;2022-10-17T07:57:13;99988.53;;;18.19;100.00
50734;BME280;36701;51.798;19.474;2022-10-17T07:59:40;99943.59;;;17.96;100.00
50734;BME280;36701;51.798;19.474;2022-10-17T08:02:21;99974.59;;;18.26;100.00
50734;BME280;36701;51.798;19.474;2022-10-17T08:04:49;99997.25;;;18.92;100.00
50734;BME280;36701;51.798;19.474;2022-10-17T08:07:15;99991.66;;;19.12;100.00
50734;BME280;36701;51.798;19.474;2022-10-17T08:09:42;99994.91;;;19.19;100.00
50734;BME280;36701;51.798;19.474;2022-10-17T08:12:09;99916.03;;;18.73;100.00
50734;BME280;36701;51.798;19.474;2022-10-17T08:14:36;99955.66;;;19.05;100.00
50734;BME280;36701;51.798;19.474;2022-10-17T08:17:04;99933.94;;;18.90;100.00
50734;BME280;36701;51.798;19.474;2022-10-17T08:19:31;99961.06;;;19.15;100.00
50734;BME280;36701;51.798;19.474;2022-10-17T08:22:04;99959.41;;;19.19;100.00
50734;BME280;36701;51.798;19.474;2022-10-17T08:24:31;99963.94;;;18.95;100.00
50734;BME280;36701;51.798;19.474;2022-10-17T08:26:57;99962.81;;;19.01;100.00
50734;BME280;36701;51.798;19.474;2022-10-17T08:29:26;99969.44;;;19.29;100.00
50734;BME280;36701;51.798;19.474;2022-10-17T08:31:53;99954.31;;;18.47;100.00
50734;BME280;36701;51.798;19.474;2022-10-17T08:34:19;100001.59;;;18.93;100.00
50734;BME280;36701;51.798;19.474;2022-10-17T08:36:46;99956.41;;;18.71;100.00
50734;BME280;36701;51.798;19.474;2022-10-17T08:39:13;99969.91;;;19.02;100.00
50734;BME280;36701;51.798;19.474;2022-10-17T08:42:03;100005.09;;;19.43;100.00
50734;BME280;36701;51.798;19.474;2022-10-17T08:44:56;99969.47;;;19.58;100.00
50734;BME280;36701;51.798;19.474;2022-10-17T08:47:32;100001.47;;;19.87;100.00
50734;BME280;36701;51.798;19.474;2022-10-17T08:50:03;99991.34;;;19.53;100.00
50734;BME280;36701;51.798;19.474;2022-10-17T08:55:21;100004.50;;;20.10;100.00
50734;BME280;36701;51.798;19.474;2022-10-17T08:57:52;99962.28;;;19.97;100.00
50734;BME280;36701;51.798;19.474;2022-10-17T09:00:20;100001.12;;;20.23;100.00
50734;BME280;36701;51.798;19.474;2022-10-17T09:05:42;99999.75;;;20.45;100.00
50734;BME280;36701;51.798;19.474;2022-10-17T09:08:19;99998.25;;;20.33;100.00
50734;BME280;36701;51.798;19.474;2022-10-17T09:13:49;99985.78;;;20.46;100.00
50734;BME280;36701;51.798;19.474;2022-10-17T09:19:07;99986.88;;;20.45;100.00
50734;BME280;36701;51.798;19.474;2022-10-17T09:21:52;99982.97;;;20.76;100.00
50734;BME280;36701;51.798;19.474;2022-10-17T09:24:59;99957.28;;;20.28;100.00
50734;BME280;36701;51.798;19.474;2022-10-17T09:27:41;99978.84;;;20.54;100.00
50734;BME280;36701;51.798;19.474;2022-10-17T09:30:19;99943.62;;;20.72;100.00
50734;BME280;36701;51.798;19.474;2022-10-17T09:32:48;99974.12;;;20.60;100.00
50734;BME280;36701;51.798;19.474;2022-10-17T09:35:16;99946.44;;;20.66;100.00
50734;BME280;36701;51.798;19.474;2022-10-17T09:37:43;99949.81;;;20.58;100.00
50734;BME280;36701;51.798;19.474;2022-10-17T09:40:21;99990.81;;;21.39;100.00
50734;BME280;36701;51.798;19.474;2022-10-17T09:42:49;99979.53;;;21.60;100.00
50734;BME280;36701;51.798;19.474;2022-10-17T09:45:19;99983.47;;;21.87;100.00
50734;BME280;36701;51.798;19.474;2022-10-17T09:48:00;99990.81;;;22.05;100.00
50734;BME280;36701;51.798;19.474;2022-10-17T09:50:31;99985.84;;;21.61;100.00
50734;BME280;36701;51.798;19.474;2022-10-17T09:53:09;99986.84;;;21.65;100.00
50734;BME280;36701;51.798;19.474;2022-10-17T09:55:46;99960.94;;;21.90;100.00
50734;BME280;36701;51.798;19.474;2022-10-17T09:58:14;99994.53;;;21.49;100.00
50734;BME280;36701;51.798;19.474;2022-10-17T10:00:43;99941.59;;;21.67;100.00
50734;BME280;36701;51.798;19.474;2022-10-17T10:03:23;99990.59;;;22.16;100.00
50734;BME280;36701;51.798;19.474;2022-10-17T10:06:00;99947.34;;;21.99;100.00
50734;BME280;36701;51.798;19.474;2022-10-17T10:08:35;99950.38;;;22.11;100.00
50734;BME280;36701;51.798;19.474;2022-10-17T10:11:07;99981.91;;;22.55;100.00
50734;BME280;36701;51.798;19.474;2022-10-17T10:13:36;99986.59;;;22.41;100.00
50734;BME280;36701;51.798;19.474;2022-10-17T10:18:41;99935.97;;;22.05;100.00
50734;BME280;36701;51.798;19.474;2022-10-17T10:21:19;99964.81;;;22.58;100.00
50734;BME280;36701;51.798;19.474;2022-10-17T10:26:36;99971.28;;;22.76;100.00
50734;BME280;36701;51.798;19.474;2022-10-17T10:29:17;99981.53;;;22.84;100.00
50734;BME280;36701;51.798;19.474;2022-10-17T10:31:46;99980.78;;;22.93;100.00
50734;BME280;36701;51.798;19.474;2022-10-17T10:34:25;99974.06;;;23.58;100.00
50734;BME280;36701;51.798;19.474;2022-10-17T10:41:52;99973.75;;;23.14;100.00
50734;BME280;36701;51.798;19.474;2022-10-17T10:44:23;99972.06;;;22.91;100.00
50734;BME280;36701;51.798;19.474;2022-10-17T10:47:13;99949.38;;;22.48;100.00
50734;BME280;36701;51.798;19.474;2022-10-17T10:49:41;99943.19;;;22.93;100.00
50734;BME280;36701;51.798;19.474;2022-10-17T10:52:14;99949.13;;;22.73;100.00
50734;BME280;36701;51.798;19.474;2022-10-17T10:54:54;99906.62;;;23.29;100.00
50734;BME280;36701;51.798;19.474;2022-10-17T10:57:26;99954.28;;;23.79;100.00
50734;BME280;36701;51.798;19.474;2022-10-17T11:02:44;99980.06;;;24.14;100.00
50734;BME280;36701;51.798;19.474;2022-10-17T11:05:36;99982.28;;;24.12;100.00
50734;BME280;36701;51.798;19.474;2022-10-17T11:08:14;99984.97;;;24.35;100.00
50734;BME280;36701;51.798;19.474;2022-10-17T11:10:58;99989.06;;;25.38;96.17
50734;BME280;36701;51.798;19.474;2022-10-17T11:13:42;99977.16;;;24.19;100.00
50734;BME280;36701;51.798;19.474;2022-10-17T11:16:34;99975.69;;;24.22;100.00
50734;BME280;36701;51.798;19.474;2022-10-17T11:22:01;99943.94;;;24.64;98.76
50734;BME280;36701;51.798;19.474;2022-10-17T11:27:29;99937.69;;;24.33;100.00
50734;BME280;36701;51.798;19.474;2022-10-17T11:29:57;99973.66;;;23.96;100.00
50734;BME280;36701;51.798;19.474;2022-10-17T11:32:33;99928.59;;;24.15;100.00
50734;BME280;36701;51.798;19.474;2022-10-17T11:35:14;99963.69;;;24.66;100.00
50734;BME280;36701;51.798;19.474;2022-10-17T11:37:48;99933.28;;;23.29;100.00
50734;BME280;36701;51.798;19.474;2022-10-17T11:45:24;99950.16;;;23.58;100.00
50734;BME280;36701;51.798;19.474;2022-10-17T11:47:57;99972.78;;;24.18;100.00
50734;BME280;36701;51.798;19.474;2022-10-17T11:50:38;99925.31;;;24.04;100.00
50734;BME280;36701;51.798;19.474;2022-10-17T11:53:13;99955.78;;;24.16;100.00
50734;BME280;36701;51.798;19.474;2022-10-17T11:55:42;99956.34;;;24.44;100.00
50734;BME280;36701;51.798;19.474;2022-10-17T11:58:35;99959.19;;;24.88;100.00
50734;BME280;36701;51.798;19.474;2022-10-17T12:01:32;99950.72;;;23.78;100.00
50734;BME280;36701;51.798;19.474;2022-10-17T12:04:14;99880.25;;;23.82;100.00
50734;BME280;36701;51.798;19.474;2022-10-17T12:06:51;99931.44;;;24.50;100.00
50734;BME280;36701;51.798;19.474;2022-10-17T12:09:25;99956.13;;;25.25;100.00
50734;BME280;36701;51.798;19.474;2022-10-17T12:11:58;99959.50;;;24.60;100.00
50734;BME280;36701;51.798;19.474;2022-10-17T12:14:43;99923.16;;;23.92;100.00
50734;BME280;36701;51.798;19.474;2022-10-17T12:17:32;99951.34;;;23.75;100.00
50734;BME280;36701;51.798;19.474;2022-10-17T12:20:35;99926.16;;;23.50;100.00
50734;BME280;36701;51.798;19.474;2022-10-17T12:25:49;99959.84;;;24.85;100.00
50734;BME280;36701;51.798;19.474;2022-10-17T12:28:26;99962.91;;;25.27;100.00
50734;BME280;36701;51.798;19.474;2022-10-17T12:31:07;99964.38;;;25.16;99.43
50734;BME280;36701;51.798;19.474;2022-10-17T12:33:48;99963.53;;;24.63;100.00
50734;BME280;36701;51.798;19.474;2022-10-17T12:38:43;99923.81;;;23.98;100.00
50734;BME280;36701;51.798;19.474;2022-10-17T12:41:11;99918.38;;;24.15;100.00
50734;BME280;36701;51.798;19.474;2022-10-17T12:43:51;99953.00;;;24.56;100.00
50734;BME280;36701;51.798;19.474;2022-10-17T12:49:43;99931.56;;;24.36;100.00
50734;BME280;36701;51.798;19.474;2022-10-17T12:57:34;99912.13;;;24.41;100.00
50734;BME280;36701;51.798;19.474;2022-10-17T13:02:44;99891.25;;;24.40;100.00
50734;BME280;36701;51.798;19.474;2022-10-17T13:05:33;99899.88;;;24.99;100.00
50734;BME280;36701;51.798;19.474;2022-10-17T13:08:04;99934.72;;;25.13;99.19
50734;BME280;36701;51.798;19.474;2022-10-17T13:10:35;99938.91;;;24.09;100.00
50734;BME280;36701;51.798;19.474;2022-10-17T13:13:05;99907.53;;;24.10;100.00
50734;BME280;36701;51.798;19.474;2022-10-17T13:15:32;99934.16;;;23.92;100.00
50734;BME280;36701;51.798;19.474;2022-10-17T13:18:01;99928.72;;;24.58;100.00
50734;BME280;36701;51.798;19.474;2022-10-17T13:20:29;99922.66;;;24.30;100.00
50734;BME280;36701;51.798;19.474;2022-10-17T13:22:56;99913.56;;;24.21;100.00
50734;BME280;36701;51.798;19.474;2022-10-17T13:25:24;99930.06;;;24.29;100.00
50734;BME280;36701;51.798;19.474;2022-10-17T13:28:04;99930.47;;;23.97;100.00
50734;BME280;36701;51.798;19.474;2022-10-17T13:30:35;99923.44;;;24.30;100.00
50734;BME280;36701;51.798;19.474;2022-10-17T13:33:02;99925.03;;;24.23;100.00
50734;BME280;36701;51.798;19.474;2022-10-17T13:35:33;99890.22;;;24.09;100.00
50734;BME280;36701;51.798;19.474;2022-10-17T13:38:05;99927.31;;;24.29;100.00
50734;BME280;36701;51.798;19.474;2022-10-17T13:40:40;99927.03;;;24.48;100.00
50734;BME280;36701;51.798;19.474;2022-10-17T13:43:15;99893.50;;;24.38;100.00
50734;BME280;36701;51.798;19.474;2022-10-17T13:45:53;99917.53;;;24.06;100.00
50734;BME280;36701;51.798;19.474;2022-10-17T13:48:24;99884.84;;;23.96;100.00
50734;BME280;36701;51.798;19.474;2022-10-17T13:50:57;99886.94;;;23.58;100.00
50734;BME280;36701;51.798;19.474;2022-10-17T13:53:34;99896.00;;;23.99;100.00
50734;BME280;36701;51.798;19.474;2022-10-17T13:56:14;99911.59;;;23.81;100.00
50734;BME280;36701;51.798;19.474;2022-10-17T14:01:12;99917.03;;;23.72;100.00
50734;BME280;36701;51.798;19.474;2022-10-17T14:03:41;99907.63;;;23.33;100.00
50734;BME280;36701;51.798;19.474;2022-10-17T14:06:20;99910.41;;;23.42;100.00
50734;BME280;36701;51.798;19.474;2022-10-17T14:08:57;99898.91;;;23.31;100.00
50734;BME280;36701;51.798;19.474;2022-10-17T14:13:55;99860.41;;;23.63;100.00
50734;BME280;36701;51.798;19.474;2022-10-17T14:16:23;99892.03;;;23.83;100.00
50734;BME280;36701;51.798;19.474;2022-10-17T14:18:51;99873.38;;;23.71;100.00
50734;BME280;36701;51.798;19.474;2022-10-17T14:21:21;99831.78;;;23.24;100.00
50734;BME280;36701;51.798;19.474;2022-10-17T14:23:48;99837.78;;;23.66;100.00
50734;BME280;36701;51.798;19.474;2022-10-17T14:26:20;99872.69;;;23.25;100.00
50734;BME280;36701;51.798;19.474;2022-10-17T14:29:05;99852.75;;;23.19;100.00